createdAt,value
2017-05-04T00:00:45.203Z,12.35
2017-05-04T00:03:45.270Z,12.34
2017-05-04T00:05:45.316Z,12.37
2017-05-04T00:06:45.336Z,12.31
2017-05-04T00:07:45.360Z,12.38
2017-05-04T00:08:45.376Z,12.34
2017-05-04T00:09:45.094Z,12.29
2017-05-04T00:11:00.036Z,12.38
2017-05-04T00:11:45.450Z,12.32
2017-05-04T00:12:45.466Z,12.27
2017-05-04T00:13:45.486Z,12.23
2017-05-04T00:14:45.514Z,12.37
2017-05-04T00:15:45.531Z,12.32
2017-05-04T00:16:45.551Z,12.27
2017-05-04T00:17:45.573Z,12.23
2017-05-04T00:18:45.600Z,12.23
2017-05-04T00:19:45.615Z,12.21
2017-05-04T00:20:45.640Z,12.27
2017-05-04T00:21:45.660Z,12.2
2017-05-04T00:23:00.300Z,12.2
2017-05-04T00:23:45.703Z,12.27
2017-05-04T00:24:45.726Z,12.24
2017-05-04T00:25:45.748Z,12.28
2017-05-04T00:27:00.385Z,12.21
2017-05-04T00:28:45.814Z,12.28
2017-05-04T00:29:45.837Z,12.32
2017-05-04T00:30:45.855Z,12.41
2017-05-04T00:32:45.904Z,12.24
2017-05-04T00:36:00.584Z,12.19
2017-05-04T00:36:45.986Z,12.23
2017-05-04T00:37:46.017Z,12.16
2017-05-04T00:38:46.033Z,12.17
2017-05-04T00:40:00.668Z,12.19
2017-05-04T00:40:46.074Z,12.21
2017-05-04T00:41:46.098Z,12.17
2017-05-04T00:43:00.734Z,12.19
2017-05-04T00:43:46.139Z,12.12
2017-05-04T00:44:45.856Z,12.13
2017-05-04T00:45:46.184Z,12.16
2017-05-04T00:46:46.202Z,12.16
2017-05-04T00:47:46.228Z,12.13
2017-05-04T00:48:46.249Z,12.09
2017-05-04T00:49:46.270Z,12.07
2017-05-04T00:51:46.338Z,12.12
2017-05-04T00:52:46.334Z,12.1
2017-05-04T00:53:46.358Z,12.13
2017-05-04T00:55:00.994Z,12.21
2017-05-04T00:55:46.400Z,12.12
2017-05-04T00:56:46.421Z,12.19
2017-05-04T00:58:01.061Z,12.07
2017-05-04T00:58:46.463Z,12.16
2017-05-04T00:59:46.487Z,12.19
2017-05-04T01:00:46.512Z,12.16
2017-05-04T01:01:46.531Z,12.07
2017-05-04T01:02:46.551Z,12.01
2017-05-04T01:03:46.574Z,12.09
2017-05-04T01:04:46.594Z,12.17
2017-05-04T01:06:46.637Z,12.09
2017-05-04T01:07:46.661Z,11.96
2017-05-04T01:08:46.683Z,11.98
2017-05-04T01:10:01.321Z,11.96
2017-05-04T01:10:46.727Z,11.98
2017-05-04T01:12:01.362Z,11.86
2017-05-04T01:12:46.767Z,11.94
2017-05-04T01:13:46.795Z,11.95
2017-05-04T01:14:46.810Z,11.91
2017-05-04T01:15:46.834Z,11.9
2017-05-04T01:16:46.854Z,11.79
2017-05-04T01:17:46.876Z,11.79
2017-05-04T01:18:46.899Z,11.88
2017-05-04T01:19:46.921Z,11.82
2017-05-04T01:20:46.637Z,11.72
2017-05-04T01:21:46.963Z,11.7
2017-05-04T01:22:46.983Z,11.69
2017-05-04T01:23:47.009Z,11.69
2017-05-04T01:24:47.029Z,11.44
2017-05-04T01:25:47.057Z,11.28
2017-05-04T01:26:47.076Z,11.19
2017-05-04T01:27:47.096Z,11.06
2017-05-04T01:28:47.114Z,10.97
2017-05-04T01:30:01.751Z,10.76
2017-05-04T01:30:47.158Z,10.82
2017-05-04T01:31:47.180Z,10.74
2017-05-04T01:32:47.199Z,10.74
2017-05-04T01:33:47.223Z,10.73
2017-05-04T01:35:47.268Z,10.66
2017-05-04T01:36:47.291Z,10.56
2017-05-04T01:37:47.305Z,10.6
2017-05-04T01:38:47.330Z,10.45
2017-05-04T01:39:47.348Z,10.55
2017-05-04T01:41:47.391Z,10.52
2017-05-04T01:42:47.416Z,10.47
2017-05-04T01:43:47.434Z,10.51
2017-05-04T01:44:47.150Z,10.47
2017-05-04T01:46:02.120Z,10.51
2017-05-04T01:46:47.500Z,10.55
2017-05-04T01:47:47.217Z,10.6
2017-05-04T01:49:47.257Z,10.51
2017-05-04T01:50:47.278Z,10.51
2017-05-04T01:51:47.606Z,10.53
2017-05-04T01:52:47.631Z,10.52
2017-05-04T01:56:47.710Z,10.51
2017-05-04T01:57:47.730Z,10.6
2017-05-04T01:59:02.063Z,10.67
2017-05-04T01:59:47.467Z,10.67
2017-05-04T02:00:47.792Z,10.61
2017-05-04T02:02:02.431Z,10.6
2017-05-04T02:02:47.836Z,10.56
2017-05-04T02:03:47.861Z,10.53
2017-05-04T02:04:47.876Z,10.45
2017-05-04T02:05:47.895Z,10.53
2017-05-04T02:06:47.919Z,10.51
2017-05-04T02:07:47.941Z,10.51
2017-05-04T02:08:47.964Z,10.53
2017-05-04T02:09:47.981Z,10.55
2017-05-04T02:10:48.002Z,10.52
2017-05-04T02:11:48.024Z,10.51
2017-05-04T02:13:02.664Z,10.53
2017-05-04T02:13:48.068Z,10.53
2017-05-04T02:14:48.090Z,10.51
2017-05-04T02:15:48.110Z,10.48
2017-05-04T02:16:48.130Z,10.51
2017-05-04T02:18:02.766Z,10.51
2017-05-04T02:18:48.173Z,10.53
2017-05-04T02:19:48.196Z,10.45
2017-05-04T02:20:48.218Z,10.51
2017-05-04T02:21:48.236Z,10.38
2017-05-04T02:22:48.256Z,10.38
2017-05-04T02:23:48.278Z,10.42
2017-05-04T02:25:48.321Z,10.48
2017-05-04T02:27:48.362Z,10.44
2017-05-04T02:29:48.405Z,10.56
2017-05-04T02:31:03.040Z,10.42
2017-05-04T02:31:48.452Z,10.48
2017-05-04T02:33:03.083Z,10.45
2017-05-04T02:33:48.491Z,10.36
2017-05-04T02:34:48.509Z,10.36
2017-05-04T02:35:48.531Z,10.34
2017-05-04T02:36:48.558Z,10.44
2017-05-04T02:37:48.574Z,10.45
2017-05-04T02:38:48.606Z,10.42
2017-05-04T02:39:48.616Z,10.34
2017-05-04T02:41:48.662Z,10.45
2017-05-04T02:42:48.376Z,10.51
2017-05-04T02:44:03.318Z,10.42
2017-05-04T02:44:48.417Z,10.51
2017-05-04T02:45:48.746Z,10.44
2017-05-04T02:46:48.485Z,10.48
2017-05-04T02:47:48.485Z,10.48
2017-05-04T02:48:48.509Z,10.53
2017-05-04T02:49:48.825Z,10.45
2017-05-04T02:50:48.544Z,10.34
2017-05-04T02:51:48.568Z,10.36
2017-05-04T02:52:48.584Z,10.34
2017-05-04T02:53:48.911Z,10.34
2017-05-04T02:54:48.627Z,10.36
2017-05-04T02:57:48.995Z,10.25
2017-05-04T02:58:49.015Z,10.25
2017-05-04T02:59:49.049Z,10.22
2017-05-04T03:00:49.057Z,10.05
2017-05-04T03:01:49.078Z,9.97
2017-05-04T03:02:49.102Z,9.94
2017-05-04T03:03:49.122Z,9.94
2017-05-04T03:05:03.756Z,9.94
2017-05-04T03:05:49.165Z,10.04
2017-05-04T03:06:49.182Z,9.93
2017-05-04T03:07:49.204Z,9.83
2017-05-04T03:09:49.244Z,9.74
2017-05-04T03:10:49.568Z,9.78
2017-05-04T03:11:49.288Z,9.69
2017-05-04T03:13:49.330Z,9.61
2017-05-04T03:14:49.348Z,9.58
2017-05-04T03:15:49.369Z,9.5
2017-05-04T03:17:04.007Z,9.46
2017-05-04T03:18:04.028Z,9.4
2017-05-04T03:18:49.442Z,9.39
2017-05-04T03:19:49.452Z,9.42
2017-05-04T03:21:04.094Z,9.48
2017-05-04T03:21:49.495Z,9.43
2017-05-04T03:22:49.515Z,9.38
2017-05-04T03:23:49.534Z,9.39
2017-05-04T03:24:49.558Z,9.35
2017-05-04T03:26:49.613Z,9.26
2017-05-04T03:28:49.644Z,9.14
2017-05-04T03:29:49.659Z,9.15
2017-05-04T03:31:04.299Z,9.11
2017-05-04T03:31:49.401Z,9.1
2017-05-04T03:33:04.338Z,8.95
2017-05-04T03:33:49.743Z,9.01
2017-05-04T03:35:04.377Z,8.89
2017-05-04T03:35:49.785Z,8.95
2017-05-04T03:37:04.417Z,8.99
2017-05-04T03:37:49.848Z,8.94
2017-05-04T03:38:49.842Z,8.98
2017-05-04T03:39:49.863Z,8.86
2017-05-04T03:40:49.890Z,8.87
2017-05-04T03:41:49.903Z,8.84
2017-05-04T03:42:49.924Z,8.89
2017-05-04T03:43:49.641Z,8.84
2017-05-04T03:45:49.986Z,8.89
2017-05-04T03:46:50.006Z,8.87
2017-05-04T03:47:50.027Z,8.79
2017-05-04T03:48:50.052Z,8.79
2017-05-04T03:49:50.066Z,8.77
2017-05-04T03:50:50.086Z,8.73
2017-05-04T03:51:50.107Z,8.61
2017-05-04T03:53:04.745Z,8.76
2017-05-04T03:53:50.147Z,8.71
2017-05-04T03:54:50.165Z,8.66
2017-05-04T03:55:50.186Z,8.68
2017-05-04T03:56:50.208Z,8.68
2017-05-04T03:57:50.227Z,8.74
2017-05-04T03:58:50.246Z,8.7
2017-05-04T03:59:50.266Z,8.7
2017-05-04T04:00:50.286Z,8.65
2017-05-04T04:03:50.350Z,8.59
2017-05-04T04:04:50.369Z,8.58
2017-05-04T04:05:50.391Z,8.58
2017-05-04T04:06:50.409Z,8.66
2017-05-04T04:08:05.044Z,8.73
2017-05-04T04:08:50.449Z,8.73
2017-05-04T04:09:50.470Z,8.74
2017-05-04T04:10:50.488Z,8.71
2017-05-04T04:11:50.511Z,8.66
2017-05-04T04:12:50.530Z,8.65
2017-05-04T04:13:50.550Z,8.74
2017-05-04T04:14:50.568Z,8.73
2017-05-04T04:15:50.588Z,8.7
2017-05-04T04:16:50.608Z,8.74
2017-05-04T04:17:50.638Z,8.73
2017-05-04T04:19:05.266Z,8.68
2017-05-04T04:19:50.669Z,8.65
2017-05-04T04:20:50.691Z,8.71
2017-05-04T04:21:50.709Z,8.55
2017-05-04T04:22:50.755Z,8.59
2017-05-04T04:23:50.757Z,8.53
2017-05-04T04:24:50.772Z,8.52
2017-05-04T04:25:50.788Z,8.56
2017-05-04T04:26:50.811Z,8.56
2017-05-04T04:27:50.831Z,8.52
2017-05-04T04:28:50.855Z,8.47
2017-05-04T04:29:50.870Z,8.43
2017-05-04T04:30:50.890Z,8.47
2017-05-04T04:33:05.549Z,8.45
2017-05-04T04:33:50.950Z,8.47
2017-05-04T04:34:50.969Z,8.47
2017-05-04T04:35:50.988Z,8.52
2017-05-04T04:36:51.011Z,8.34
2017-05-04T04:37:51.031Z,8.41
2017-05-04T04:38:51.049Z,8.48
2017-05-04T04:40:51.087Z,8.41
2017-05-04T04:41:51.109Z,8.38
2017-05-04T04:42:51.129Z,8.43
2017-05-04T04:43:51.158Z,8.43
2017-05-04T04:44:50.869Z,8.34
2017-05-04T04:45:51.195Z,8.43
2017-05-04T04:46:51.209Z,8.4
2017-05-04T04:47:51.230Z,8.36
2017-05-04T04:48:51.252Z,8.36
2017-05-04T04:49:51.269Z,8.37
2017-05-04T04:50:51.289Z,8.36
2017-05-04T04:51:51.312Z,8.4
2017-05-04T04:52:51.329Z,8.29
2017-05-04T04:53:51.047Z,8.33
2017-05-04T04:54:51.067Z,8.36
2017-05-04T04:56:06.003Z,8.4
2017-05-04T04:56:51.104Z,8.3
2017-05-04T04:57:51.125Z,8.36
2017-05-04T04:58:51.448Z,8.29
2017-05-04T04:59:51.471Z,8.4
2017-05-04T05:00:51.182Z,8.3
2017-05-04T05:02:51.232Z,8.3
2017-05-04T05:03:51.246Z,8.43
2017-05-04T05:04:51.263Z,8.48
2017-05-04T05:07:06.223Z,8.44
2017-05-04T05:08:06.243Z,8.44
2017-05-04T05:08:51.646Z,8.47
2017-05-04T05:09:51.666Z,8.5
2017-05-04T05:10:51.382Z,8.52
2017-05-04T05:12:06.020Z,8.36
2017-05-04T05:12:51.424Z,8.41
2017-05-04T05:13:51.442Z,8.43
2017-05-04T05:14:51.770Z,8.44
2017-05-04T05:15:51.788Z,8.4
2017-05-04T05:16:51.804Z,8.41
2017-05-04T05:17:51.824Z,8.43
2017-05-04T05:18:51.844Z,8.41
2017-05-04T05:19:51.862Z,8.41
2017-05-04T05:21:51.905Z,8.55
2017-05-04T05:23:51.952Z,8.38
2017-05-04T05:24:51.978Z,8.45
2017-05-04T05:25:51.982Z,8.37
2017-05-04T05:26:52.005Z,8.4
2017-05-04T05:28:06.337Z,8.43
2017-05-04T05:28:52.044Z,8.4
2017-05-04T05:29:52.070Z,8.29
2017-05-04T05:30:52.081Z,8.34
2017-05-04T05:31:52.104Z,8.36
2017-05-04T05:32:52.137Z,8.29
2017-05-04T05:33:52.146Z,8.44
2017-05-04T05:34:52.162Z,8.44
2017-05-04T05:35:52.184Z,8.34
2017-05-04T05:38:06.840Z,8.34
2017-05-04T05:38:52.261Z,8.4
2017-05-04T05:39:52.261Z,8.29
2017-05-04T05:40:52.282Z,8.3
2017-05-04T05:41:52.302Z,8.3
2017-05-04T05:43:06.938Z,8.38
2017-05-04T05:43:52.339Z,8.41
2017-05-04T05:44:52.367Z,8.36
2017-05-04T05:45:52.380Z,8.36
2017-05-04T05:46:52.402Z,8.4
2017-05-04T05:47:52.451Z,8.33
2017-05-04T05:48:52.439Z,8.29
2017-05-04T05:49:52.459Z,8.25
2017-05-04T05:51:52.498Z,8.25
2017-05-04T05:52:52.218Z,8.26
2017-05-04T05:54:07.156Z,8.29
2017-05-04T05:55:07.176Z,8.45
2017-05-04T05:55:52.574Z,8.36
2017-05-04T05:56:52.599Z,8.34
2017-05-04T05:57:52.614Z,8.29
2017-05-04T05:58:52.638Z,8.34
2017-05-04T05:59:52.661Z,8.33
2017-05-04T06:00:52.675Z,8.3
2017-05-04T06:01:52.697Z,8.33
2017-05-04T06:02:52.716Z,8.26
2017-05-04T06:03:52.735Z,8.23
2017-05-04T06:05:52.775Z,8.3
2017-05-04T06:06:52.793Z,8.36
2017-05-04T06:07:52.814Z,8.34
2017-05-04T06:09:07.453Z,8.3
2017-05-04T06:10:07.471Z,8.4
2017-05-04T06:11:07.489Z,8.41
2017-05-04T06:11:52.980Z,8.37
2017-05-04T06:12:52.915Z,8.36
2017-05-04T06:13:52.931Z,8.43
2017-05-04T06:15:07.567Z,8.44
2017-05-04T06:15:52.973Z,8.44
2017-05-04T06:16:52.990Z,8.4
2017-05-04T06:17:53.015Z,8.34
2017-05-04T06:18:53.033Z,8.34
2017-05-04T06:19:53.050Z,8.37
2017-05-04T06:22:53.109Z,8.36
2017-05-04T06:23:53.130Z,8.23
2017-05-04T06:24:53.151Z,8.33
2017-05-04T06:25:53.169Z,8.33
2017-05-04T06:26:52.886Z,8.37
2017-05-04T06:27:53.210Z,8.43
2017-05-04T06:28:53.228Z,8.41
2017-05-04T06:29:52.948Z,8.29
2017-05-04T06:31:07.881Z,8.4
2017-05-04T06:31:53.290Z,8.4
2017-05-04T06:32:53.306Z,8.45
2017-05-04T06:33:53.326Z,8.38
2017-05-04T06:34:53.346Z,8.38
2017-05-04T06:35:53.367Z,8.4
2017-05-04T06:36:53.389Z,8.37
2017-05-04T06:37:53.408Z,8.37
2017-05-04T06:39:53.441Z,8.34
2017-05-04T06:40:53.461Z,8.23
2017-05-04T06:41:53.483Z,8.23
2017-05-04T06:42:53.508Z,8.37
2017-05-04T06:44:07.833Z,8.33
2017-05-04T06:44:53.547Z,8.37
2017-05-04T06:45:53.569Z,8.26
2017-05-04T06:47:08.197Z,8.36
2017-05-04T06:47:53.604Z,8.33
2017-05-04T06:48:53.622Z,8.2
2017-05-04T06:49:53.639Z,8.18
2017-05-04T06:50:53.658Z,8.34
2017-05-04T06:51:53.684Z,8.4
2017-05-04T06:52:53.699Z,8.37
2017-05-04T06:53:53.419Z,8.38
2017-05-04T06:54:53.737Z,8.36
2017-05-04T06:56:53.777Z,8.4
2017-05-04T06:57:53.799Z,8.41
2017-05-04T06:58:53.820Z,8.4
2017-05-04T07:00:08.451Z,8.44
2017-05-04T07:00:53.903Z,8.41
2017-05-04T07:01:53.873Z,8.41
2017-05-04T07:03:08.510Z,8.34
2017-05-04T07:03:53.911Z,8.36
2017-05-04T07:04:53.939Z,8.43
2017-05-04T07:05:53.953Z,8.48
2017-05-04T07:06:53.974Z,8.38
2017-05-04T07:07:53.696Z,8.53
2017-05-04T07:09:54.031Z,8.45
2017-05-04T07:10:54.050Z,8.4
2017-05-04T07:11:54.072Z,8.58
2017-05-04T07:13:08.709Z,8.44
2017-05-04T07:13:54.114Z,8.45
2017-05-04T07:15:08.747Z,8.4
2017-05-04T07:16:08.765Z,8.4
2017-05-04T07:16:54.170Z,8.36
2017-05-04T07:18:08.806Z,8.52
2017-05-04T07:18:53.908Z,8.52
2017-05-04T07:19:54.230Z,8.58
2017-05-04T07:21:54.518Z,8.53
2017-05-04T07:22:54.289Z,8.59
2017-05-04T07:23:54.307Z,8.53
2017-05-04T07:24:54.333Z,8.55
2017-05-04T07:26:54.367Z,8.65
2017-05-04T07:27:54.111Z,8.62
2017-05-04T07:29:09.023Z,8.53
2017-05-04T07:29:54.126Z,8.61
2017-05-04T07:30:54.444Z,8.56
2017-05-04T07:31:54.481Z,8.56
2017-05-04T07:32:54.489Z,8.5
2017-05-04T07:33:54.505Z,8.52
2017-05-04T07:34:54.527Z,8.52
2017-05-04T07:35:54.546Z,8.47
2017-05-04T07:36:54.563Z,8.48
2017-05-04T07:37:54.585Z,8.43
2017-05-04T07:38:54.600Z,8.34
2017-05-04T07:39:54.623Z,8.38
2017-05-04T07:40:54.644Z,8.52
2017-05-04T07:41:54.962Z,8.4
2017-05-04T07:42:54.686Z,8.38
2017-05-04T07:44:54.726Z,8.4
2017-05-04T07:45:54.751Z,8.45
2017-05-04T07:46:54.763Z,8.44
2017-05-04T07:47:54.783Z,8.38
2017-05-04T07:48:54.801Z,8.41
2017-05-04T07:50:09.437Z,8.41
2017-05-04T07:50:54.839Z,8.47
2017-05-04T07:51:54.867Z,8.5
2017-05-04T07:52:54.881Z,8.47
2017-05-04T07:53:54.594Z,8.41
2017-05-04T07:54:54.626Z,8.48
2017-05-04T07:55:54.943Z,8.43
2017-05-04T07:56:54.964Z,8.47
2017-05-04T07:57:54.671Z,8.5
2017-05-04T07:58:54.994Z,8.45
2017-05-04T07:59:55.018Z,8.55
2017-05-04T08:00:54.732Z,8.41
2017-05-04T08:01:54.752Z,8.48
2017-05-04T08:03:09.691Z,8.47
2017-05-04T08:04:09.709Z,8.58
2017-05-04T08:04:55.114Z,8.55
2017-05-04T08:06:09.749Z,8.59
2017-05-04T08:06:55.153Z,8.65
2017-05-04T08:07:54.871Z,8.7
2017-05-04T08:08:55.191Z,8.7
2017-05-04T08:09:55.211Z,8.52
2017-05-04T08:10:54.927Z,8.48
2017-05-04T08:11:55.252Z,8.47
2017-05-04T08:13:55.293Z,8.43
2017-05-04T08:15:55.330Z,8.48
2017-05-04T08:16:55.354Z,8.47
2017-05-04T08:18:09.986Z,8.44
2017-05-04T08:18:55.419Z,8.48
2017-05-04T08:19:55.409Z,8.5
2017-05-04T08:20:55.122Z,8.58
2017-05-04T08:22:10.062Z,8.55
2017-05-04T08:22:55.469Z,8.56
2017-05-04T08:23:55.492Z,8.62
2017-05-04T08:24:55.509Z,8.55
2017-05-04T08:25:55.221Z,8.58
2017-05-04T08:26:55.547Z,8.56
2017-05-04T08:27:55.566Z,8.7
2017-05-04T08:28:55.589Z,8.56
2017-05-04T08:29:55.606Z,8.59
2017-05-04T08:30:55.626Z,8.63
2017-05-04T08:32:55.667Z,8.7
2017-05-04T08:33:55.683Z,8.62
2017-05-04T08:35:10.319Z,8.7
2017-05-04T08:35:55.723Z,8.63
2017-05-04T08:36:55.443Z,8.71
2017-05-04T08:38:10.100Z,8.74
2017-05-04T08:38:55.783Z,8.86
2017-05-04T08:39:55.800Z,8.91
2017-05-04T08:40:55.517Z,8.81
2017-05-04T08:41:55.537Z,8.81
2017-05-04T08:42:55.865Z,8.79
2017-05-04T08:43:55.576Z,8.81
2017-05-04T08:44:55.904Z,8.79
2017-05-04T08:45:55.615Z,8.73
2017-05-04T08:46:55.636Z,8.8
2017-05-04T08:49:10.292Z,8.86
2017-05-04T08:50:55.717Z,8.95
2017-05-04T08:51:56.039Z,8.94
2017-05-04T08:53:10.371Z,9.1
2017-05-04T08:53:55.777Z,9.17
2017-05-04T08:54:56.097Z,9.04
2017-05-04T08:55:56.121Z,9.14
2017-05-04T08:56:56.142Z,9.13
2017-05-04T08:57:56.170Z,9.14
2017-05-04T08:58:56.214Z,9.13
2017-05-04T08:59:55.895Z,9.14
2017-05-04T09:00:56.221Z,9.18
2017-05-04T09:02:56.262Z,9.23
2017-05-04T09:03:56.280Z,9.33
2017-05-04T09:04:56.301Z,9.28
2017-05-04T09:06:10.934Z,9.42
2017-05-04T09:06:56.338Z,9.42
2017-05-04T09:07:56.360Z,9.28
2017-05-04T09:08:56.381Z,9.17
2017-05-04T09:09:56.405Z,9.04
2017-05-04T09:10:56.418Z,9.1
2017-05-04T09:11:56.445Z,9.1
2017-05-04T09:12:56.465Z,9.02
2017-05-04T09:13:56.777Z,9.11
2017-05-04T09:14:56.501Z,9.17
2017-05-04T09:15:56.520Z,9.14
2017-05-04T09:17:56.563Z,9.26
2017-05-04T09:19:11.197Z,9.35
2017-05-04T09:19:56.601Z,9.29
2017-05-04T09:20:56.624Z,9.28
2017-05-04T09:22:11.256Z,9.24
2017-05-04T09:22:56.358Z,9.32
2017-05-04T09:23:56.682Z,9.13
2017-05-04T09:25:11.317Z,9.21
2017-05-04T09:25:56.747Z,9.18
2017-05-04T09:26:56.741Z,9.04
2017-05-04T09:27:56.760Z,9.02
2017-05-04T09:28:56.781Z,9.04
2017-05-04T09:30:56.827Z,9.11
2017-05-04T09:31:56.842Z,9.13
2017-05-04T09:32:56.863Z,9.17
2017-05-04T09:33:56.888Z,9.33
2017-05-04T09:36:56.940Z,9.26
2017-05-04T09:38:11.577Z,9.31
2017-05-04T09:38:56.984Z,9.26
2017-05-04T09:39:57.016Z,9.32
2017-05-04T09:41:11.641Z,9.32
2017-05-04T09:41:57.044Z,9.43
2017-05-04T09:42:56.763Z,9.38
2017-05-04T09:43:57.084Z,9.4
2017-05-04T09:44:56.801Z,9.38
2017-05-04T09:45:56.820Z,9.36
2017-05-04T09:46:56.842Z,9.46
2017-05-04T09:47:57.164Z,9.43
2017-05-04T09:48:56.882Z,9.42
2017-05-04T09:49:57.210Z,9.46
2017-05-04T09:50:57.223Z,9.42
2017-05-04T09:51:56.943Z,9.58
2017-05-04T09:52:57.264Z,9.58
2017-05-04T09:53:57.320Z,9.57
2017-05-04T09:54:57.001Z,9.43
2017-05-04T09:55:57.325Z,9.53
2017-05-04T09:57:11.961Z,9.53
2017-05-04T09:57:57.368Z,9.47
2017-05-04T09:58:57.385Z,9.56
2017-05-04T09:59:57.407Z,9.56
2017-05-04T10:00:57.427Z,9.65
2017-05-04T10:01:57.448Z,9.69
2017-05-04T10:03:57.489Z,9.6
2017-05-04T10:04:57.509Z,9.61
2017-05-04T10:05:57.529Z,9.54
2017-05-04T10:06:57.547Z,9.58
2017-05-04T10:07:57.622Z,9.56
2017-05-04T10:08:57.597Z,9.64
2017-05-04T10:09:57.614Z,9.6
2017-05-04T10:10:57.328Z,9.6
2017-05-04T10:11:57.346Z,9.56
2017-05-04T10:13:12.293Z,9.57
2017-05-04T10:13:57.387Z,9.71
2017-05-04T10:14:57.412Z,9.71
2017-05-04T10:15:57.427Z,9.51
2017-05-04T10:16:57.451Z,9.46
2017-05-04T10:17:57.777Z,9.4
2017-05-04T10:18:57.792Z,9.46
2017-05-04T10:19:57.516Z,9.42
2017-05-04T10:21:57.855Z,9.54
2017-05-04T10:23:12.189Z,9.46
2017-05-04T10:23:57.594Z,9.43
2017-05-04T10:24:57.613Z,9.46
2017-05-04T10:26:12.551Z,9.46
2017-05-04T10:26:57.954Z,9.48
2017-05-04T10:28:12.622Z,9.6
2017-05-04T10:28:57.693Z,9.43
2017-05-04T10:29:58.022Z,9.46
2017-05-04T10:30:58.041Z,9.47
2017-05-04T10:31:58.058Z,9.43
2017-05-04T10:32:58.079Z,9.54
2017-05-04T10:33:58.104Z,9.5
2017-05-04T10:34:58.118Z,9.6
2017-05-04T10:35:58.139Z,9.57
2017-05-04T10:36:58.157Z,9.65
2017-05-04T10:38:58.201Z,9.65
2017-05-04T10:39:58.226Z,9.69
2017-05-04T10:40:58.243Z,9.74
2017-05-04T10:41:58.261Z,9.57
2017-05-04T10:42:58.283Z,9.56
2017-05-04T10:43:58.304Z,9.43
2017-05-04T10:44:58.322Z,9.4
2017-05-04T10:45:58.342Z,9.54
2017-05-04T10:46:58.392Z,9.54
2017-05-04T10:47:58.385Z,9.68
2017-05-04T10:48:58.408Z,9.65
2017-05-04T10:49:58.424Z,9.72
2017-05-04T10:50:58.444Z,9.64
2017-05-04T10:52:58.483Z,9.6
2017-05-04T10:55:13.143Z,9.61
2017-05-04T10:55:58.548Z,9.58
2017-05-04T10:57:13.180Z,9.54
2017-05-04T10:57:58.588Z,9.58
2017-05-04T10:58:58.604Z,9.66
2017-05-04T11:00:12.938Z,9.61
2017-05-04T11:00:58.657Z,9.64
2017-05-04T11:01:58.666Z,9.57
2017-05-04T11:02:58.688Z,9.66
2017-05-04T11:03:58.711Z,9.72
2017-05-04T11:04:58.728Z,9.66
2017-05-04T11:05:58.747Z,9.64
2017-05-04T11:06:58.769Z,9.54
2017-05-04T11:07:58.790Z,9.58
2017-05-04T11:08:58.812Z,9.6
2017-05-04T11:09:58.829Z,9.46
2017-05-04T11:10:58.848Z,9.47
2017-05-04T11:11:58.872Z,9.43
2017-05-04T11:12:58.890Z,9.54
2017-05-04T11:14:13.525Z,9.56
2017-05-04T11:14:58.929Z,9.64
2017-05-04T11:16:13.566Z,9.6
2017-05-04T11:16:58.970Z,9.58
2017-05-04T11:17:58.996Z,9.64
2017-05-04T11:18:58.708Z,9.72
2017-05-04T11:19:59.034Z,9.58
2017-05-04T11:20:59.051Z,9.66
2017-05-04T11:21:59.077Z,9.66
2017-05-04T11:22:59.093Z,9.66
2017-05-04T11:23:59.115Z,9.51
2017-05-04T11:24:59.132Z,9.65
2017-05-04T11:25:59.154Z,9.72
2017-05-04T11:26:58.874Z,9.68
2017-05-04T11:27:59.195Z,9.58
2017-05-04T11:29:13.827Z,9.68
2017-05-04T11:29:59.236Z,9.68
2017-05-04T11:30:59.253Z,9.61
2017-05-04T11:32:13.890Z,9.68
2017-05-04T11:32:59.295Z,9.81
2017-05-04T11:33:59.314Z,9.64
2017-05-04T11:34:59.032Z,9.66
2017-05-04T11:35:59.379Z,9.69
2017-05-04T11:36:59.376Z,9.69
2017-05-04T11:37:59.395Z,9.74
2017-05-04T11:38:59.419Z,9.71
2017-05-04T11:39:59.438Z,9.61
2017-05-04T11:40:59.462Z,9.81
2017-05-04T11:42:59.193Z,9.75
2017-05-04T11:43:59.219Z,9.86
2017-05-04T11:44:59.541Z,9.89
2017-05-04T11:45:59.255Z,9.89
2017-05-04T11:46:59.579Z,9.74
2017-05-04T11:48:13.914Z,9.84
2017-05-04T11:48:59.621Z,9.91
2017-05-04T11:49:59.645Z,9.93
2017-05-04T11:50:59.665Z,9.9
2017-05-04T11:51:59.682Z,9.9
2017-05-04T11:53:14.324Z,9.91
2017-05-04T11:53:59.721Z,9.75
2017-05-04T11:54:59.740Z,9.87
2017-05-04T11:55:59.761Z,9.86
2017-05-04T11:56:59.787Z,9.86
2017-05-04T11:57:59.805Z,9.91
2017-05-04T11:58:59.824Z,9.78
2017-05-04T12:00:14.459Z,9.74
2017-05-04T12:00:59.863Z,9.84
2017-05-04T12:01:59.883Z,9.78
2017-05-04T12:03:14.523Z,9.83
2017-05-04T12:03:59.928Z,9.78
2017-05-04T12:04:59.953Z,9.78
2017-05-04T12:05:59.972Z,9.89
2017-05-04T12:06:59.990Z,9.84
2017-05-04T12:08:00.007Z,9.89
2017-05-04T12:09:00.029Z,9.94
2017-05-04T12:10:00.048Z,9.94
2017-05-04T12:12:00.100Z,9.94
2017-05-04T12:14:00.130Z,9.94
2017-05-04T12:15:00.156Z,9.94
2017-05-04T12:16:14.787Z,9.9
2017-05-04T12:17:00.196Z,9.97
2017-05-04T12:18:00.211Z,9.99
2017-05-04T12:20:00.257Z,9.97
2017-05-04T12:21:00.277Z,9.97
2017-05-04T12:22:00.313Z,10.02
2017-05-04T12:23:00.313Z,9.9
2017-05-04T12:24:00.333Z,9.97
2017-05-04T12:25:00.354Z,10.04
2017-05-04T12:26:00.381Z,9.93
2017-05-04T12:27:00.394Z,9.99
2017-05-04T12:28:00.418Z,9.99
2017-05-04T12:29:00.133Z,9.97
2017-05-04T12:30:00.457Z,9.96
2017-05-04T12:31:00.476Z,10.05
2017-05-04T12:32:15.113Z,9.99
2017-05-04T12:33:00.518Z,9.94
2017-05-04T12:34:00.539Z,10.01
2017-05-04T12:35:15.178Z,9.93
2017-05-04T12:36:00.579Z,9.97
2017-05-04T12:37:00.601Z,9.97
2017-05-04T12:38:00.318Z,10.07
2017-05-04T12:39:00.644Z,9.96
2017-05-04T12:40:00.661Z,9.93
2017-05-04T12:41:00.683Z,9.9
2017-05-04T12:42:00.702Z,9.94
2017-05-04T12:43:00.424Z,9.89
2017-05-04T12:44:15.364Z,9.81
2017-05-04T12:45:00.762Z,9.9
2017-05-04T12:46:00.177Z,9.89
2017-05-04T12:47:00.508Z,9.84
2017-05-04T12:48:00.522Z,9.87
2017-05-04T12:49:00.850Z,9.86
2017-05-04T12:50:00.868Z,9.93
2017-05-04T12:51:15.501Z,9.91
2017-05-04T12:52:00.603Z,9.91
2017-05-04T12:53:00.625Z,9.96
2017-05-04T12:55:00.968Z,9.9
2017-05-04T12:56:00.992Z,9.94
2017-05-04T12:57:01.014Z,10.01
2017-05-04T12:58:00.736Z,9.94
2017-05-04T12:59:00.748Z,10.02
2017-05-04T13:00:01.074Z,9.96
2017-05-04T13:01:01.090Z,9.97
2017-05-04T13:02:00.811Z,10.02
2017-05-04T13:03:01.131Z,10.02
2017-05-04T13:04:01.153Z,10.04
2017-05-04T13:05:01.174Z,10.08
2017-05-04T13:06:01.199Z,10.12
2017-05-04T13:07:15.830Z,10.08
2017-05-04T13:08:01.235Z,10.04
2017-05-04T13:09:01.255Z,10.01
2017-05-04T13:10:01.274Z,9.99
2017-05-04T13:12:01.316Z,10.11
2017-05-04T13:13:01.338Z,10.26
2017-05-04T13:15:01.378Z,10.04
2017-05-04T13:16:01.403Z,10.12
2017-05-04T13:17:01.419Z,10.05
2017-05-04T13:18:01.439Z,10.04
2017-05-04T13:19:01.487Z,10.02
2017-05-04T13:20:16.097Z,10.08
2017-05-04T13:21:01.505Z,10.02
2017-05-04T13:22:01.521Z,10.04
2017-05-04T13:23:16.158Z,9.99
2017-05-04T13:24:01.563Z,9.94
2017-05-04T13:25:01.587Z,9.96
2017-05-04T13:26:01.603Z,9.99
2017-05-04T13:27:01.624Z,10.02
2017-05-04T13:28:01.646Z,10.07
2017-05-04T13:29:01.664Z,10.17
2017-05-04T13:30:01.684Z,10.05
2017-05-04T13:31:01.405Z,10.08
2017-05-04T13:32:01.731Z,10.07
2017-05-04T13:33:01.748Z,10.04
2017-05-04T13:34:01.770Z,10.07
2017-05-04T13:35:01.796Z,10.08
2017-05-04T13:36:16.425Z,10.15
2017-05-04T13:37:01.835Z,10.02
2017-05-04T13:38:16.164Z,10.07
2017-05-04T13:39:01.877Z,10.05
2017-05-04T13:40:01.892Z,10.02
2017-05-04T13:42:01.931Z,10.04
2017-05-04T13:43:01.953Z,10.02
2017-05-04T13:44:01.977Z,10.15
2017-05-04T13:45:01.995Z,10.05
2017-05-04T13:46:02.030Z,10.01
2017-05-04T13:47:02.035Z,9.97
2017-05-04T13:48:02.058Z,10.05
2017-05-04T13:49:02.077Z,9.9
2017-05-04T13:50:02.101Z,9.94
2017-05-04T13:51:16.734Z,10.02
2017-05-04T13:52:02.141Z,9.94
2017-05-04T13:53:02.161Z,9.91
2017-05-04T13:54:02.182Z,9.94
2017-05-04T13:55:02.201Z,9.94
2017-05-04T13:56:02.223Z,9.9
2017-05-04T13:57:02.243Z,9.76
2017-05-04T13:58:02.265Z,9.87
2017-05-04T13:59:02.281Z,9.89
2017-05-04T14:00:02.302Z,9.99
2017-05-04T14:01:02.022Z,9.93
2017-05-04T14:03:02.363Z,9.94
2017-05-04T14:04:02.390Z,9.97
2017-05-04T14:05:02.404Z,9.94
2017-05-04T14:06:17.042Z,9.89
2017-05-04T14:07:02.448Z,9.84
2017-05-04T14:08:02.468Z,9.84
2017-05-04T14:09:02.484Z,9.84
2017-05-04T14:10:17.122Z,9.97
2017-05-04T14:11:02.529Z,9.91
2017-05-04T14:12:02.554Z,9.93
2017-05-04T14:13:02.570Z,9.9
2017-05-04T14:14:02.588Z,9.9
2017-05-04T14:15:02.612Z,9.89
2017-05-04T14:16:02.642Z,9.86
2017-05-04T14:17:02.654Z,9.76
2017-05-04T14:18:02.671Z,9.79
2017-05-04T14:19:02.692Z,9.87
2017-05-04T14:20:02.431Z,9.91
2017-05-04T14:21:02.733Z,9.89
2017-05-04T14:22:17.368Z,9.96
2017-05-04T14:23:17.388Z,9.99
2017-05-04T14:24:02.792Z,9.94